createdAt,value
2023-02-11T00:01:26.377Z,50.77
2023-02-11T00:03:53.522Z,50.53
2023-02-11T00:06:20.453Z,50.74
2023-02-11T00:08:49.684Z,50.61
2023-02-11T00:11:18.634Z,51.24
2023-02-11T00:13:46.607Z,51.16
2023-02-11T00:16:19.687Z,51.56
2023-02-11T00:18:53.150Z,51.66
2023-02-11T00:21:26.311Z,51.51
2023-02-11T00:23:57.321Z,51.50
2023-02-11T00:26:31.744Z,52.22
2023-02-11T00:29:01.625Z,51.42
2023-02-11T00:31:34.057Z,51.55
2023-02-11T00:34:08.673Z,51.60
2023-02-11T00:36:38.469Z,51.45
2023-02-11T00:39:25.328Z,51.67
2023-02-11T00:42:01.565Z,51.22
2023-02-11T00:44:30.828Z,51.45
2023-02-11T00:47:05.315Z,51.30
2023-02-11T00:49:34.474Z,51.17
2023-02-11T00:52:01.281Z,51.25
2023-02-11T00:54:30.392Z,51.60
2023-02-11T00:56:57.103Z,51.55
2023-02-11T00:59:27.652Z,51.74
2023-02-11T01:02:04.703Z,51.65
2023-02-11T01:04:34.250Z,52.01
2023-02-11T01:07:01.061Z,51.88
2023-02-11T01:09:27.854Z,51.74
2023-02-11T01:11:57.130Z,51.83
2023-02-11T01:14:23.928Z,51.61
2023-02-11T01:16:53.902Z,51.78
2023-02-11T01:19:21.370Z,51.75
2023-02-11T01:21:50.480Z,51.79
2023-02-11T01:24:19.506Z,51.77
2023-02-11T01:26:48.817Z,51.60
2023-02-11T01:29:17.948Z,51.60
2023-02-11T01:31:47.137Z,51.85
2023-02-11T01:34:14.660Z,51.75
2023-02-11T01:36:41.897Z,51.59
2023-02-11T01:39:09.007Z,51.95
2023-02-11T01:41:35.846Z,52.08
2023-02-11T01:44:33.464Z,52.08
2023-02-11T01:47:06.130Z,51.92
2023-02-11T01:49:36.876Z,52.00
2023-02-11T01:52:10.477Z,52.11
2023-02-11T01:55:00.445Z,52.45
2023-02-11T01:57:32.038Z,52.63
2023-02-11T02:00:17.310Z,52.81
2023-02-11T02:02:44.437Z,52.54
2023-02-11T02:05:40.335Z,52.72
2023-02-11T02:08:21.634Z,52.32
2023-02-11T02:10:56.347Z,52.26
2023-02-11T02:13:25.068Z,52.63
2023-02-11T02:15:59.919Z,52.79
2023-02-11T02:18:51.873Z,53.11
2023-02-11T02:21:55.670Z,53.13
2023-02-11T02:24:41.223Z,52.67
2023-02-11T02:27:36.449Z,52.92
2023-02-11T02:30:28.231Z,53.07
2023-02-11T02:33:07.899Z,52.76
2023-02-11T02:35:55.714Z,52.71
2023-02-11T02:38:31.936Z,52.69
2023-02-11T02:41:20.047Z,52.84
2023-02-11T02:43:53.009Z,53.25
2023-02-11T02:46:29.999Z,53.01
2023-02-11T02:49:00.022Z,52.67
2023-02-11T02:51:51.537Z,53.44
2023-02-11T02:54:21.389Z,53.10
2023-02-11T02:57:05.370Z,53.13
2023-02-11T02:59:52.807Z,52.94
2023-02-11T03:02:35.695Z,53.23
2023-02-11T03:05:17.524Z,53.45
2023-02-11T03:07:51.649Z,53.51
2023-02-11T03:10:27.918Z,53.72
2023-02-11T03:12:57.662Z,53.46
2023-02-11T03:15:28.571Z,53.31
2023-02-11T03:18:00.744Z,53.64
2023-02-11T03:20:27.406Z,53.71
2023-02-11T03:23:02.596Z,53.70
2023-02-11T03:25:37.532Z,53.16
2023-02-11T03:28:25.183Z,53.20
2023-02-11T03:31:01.268Z,53.29
2023-02-11T03:33:45.976Z,53.62
2023-02-11T03:36:20.248Z,53.77
2023-02-11T03:38:52.993Z,53.28
2023-02-11T03:41:22.249Z,53.47
2023-02-11T03:43:56.524Z,53.41
2023-02-11T03:46:34.702Z,53.68
2023-02-11T03:49:15.800Z,53.32
2023-02-11T03:51:43.333Z,53.32
2023-02-11T03:54:17.172Z,53.10
2023-02-11T03:56:51.668Z,53.11
2023-02-11T03:59:18.657Z,53.35
2023-02-11T04:01:45.452Z,53.33
2023-02-11T04:04:12.249Z,53.25
2023-02-11T04:06:41.594Z,53.32
2023-02-11T04:09:10.832Z,53.00
2023-02-11T04:11:37.574Z,53.44
2023-02-11T04:14:06.782Z,53.38
2023-02-11T04:16:33.600Z,53.66
2023-02-11T04:19:02.746Z,53.22
2023-02-11T04:21:31.990Z,53.20
2023-02-11T04:24:06.782Z,53.03
2023-02-11T04:26:36.599Z,52.98
2023-02-11T04:29:03.551Z,53.16
2023-02-11T04:31:35.115Z,52.95
2023-02-11T04:34:05.930Z,52.83
2023-02-11T04:36:32.816Z,52.92
2023-02-11T04:39:02.173Z,52.97
2023-02-11T04:41:31.048Z,53.28
2023-02-11T04:44:00.387Z,53.05
2023-02-11T04:46:30.109Z,53.11
2023-02-11T04:49:05.051Z,53.15
2023-02-11T04:51:34.423Z,53.21
2023-02-11T04:54:01.224Z,53.02
2023-02-11T04:56:28.065Z,53.86
2023-02-11T04:58:57.006Z,54.06
2023-02-11T05:01:26.488Z,54.05
2023-02-11T05:03:53.432Z,54.24
2023-02-11T05:06:22.675Z,54.94
2023-02-11T05:08:54.542Z,54.77
2023-02-11T05:11:26.812Z,54.69
2023-02-11T05:14:01.585Z,54.90
2023-02-11T05:16:28.576Z,54.97
2023-02-11T05:19:03.236Z,54.88
2023-02-11T05:21:32.564Z,55.02
2023-02-11T05:24:04.384Z,55.18
2023-02-11T05:26:36.564Z,54.84
2023-02-11T05:29:08.477Z,55.06
2023-02-11T05:31:40.494Z,55.01
2023-02-11T05:34:13.118Z,55.00
2023-02-11T05:36:44.976Z,55.03
2023-02-11T05:39:12.273Z,55.23
2023-02-11T05:41:39.107Z,55.03
2023-02-11T05:44:08.221Z,54.56
2023-02-11T05:46:35.038Z,55.01
2023-02-11T05:49:08.969Z,54.99
2023-02-11T05:51:38.150Z,54.87
2023-02-11T05:54:07.998Z,54.87
2023-02-11T05:56:38.059Z,54.79
2023-02-11T05:59:12.385Z,54.83
2023-02-11T06:01:39.267Z,55.04
2023-02-11T06:04:08.981Z,54.75
2023-02-11T06:06:45.421Z,54.60
2023-02-11T06:09:12.225Z,54.32
2023-02-11T06:11:48.412Z,54.44
2023-02-11T06:14:20.085Z,54.54
2023-02-11T06:16:52.373Z,54.51
2023-02-11T06:19:21.598Z,54.64
2023-02-11T06:21:48.464Z,54.38
2023-02-11T06:24:28.696Z,54.54
2023-02-11T06:27:05.290Z,55.15
2023-02-11T06:29:35.467Z,54.90
2023-02-11T06:32:08.618Z,55.00
2023-02-11T06:34:38.829Z,54.83
2023-02-11T06:37:08.388Z,54.54
2023-02-11T06:39:35.312Z,54.78
2023-02-11T06:42:06.985Z,54.69
2023-02-11T06:44:34.682Z,54.70
2023-02-11T06:47:04.273Z,54.83
2023-02-11T06:49:34.034Z,54.51
2023-02-11T06:52:00.987Z,54.21
2023-02-11T06:54:32.116Z,53.77
2023-02-11T06:56:58.845Z,53.72
2023-02-11T06:59:28.270Z,53.76
2023-02-11T07:01:58.186Z,53.34
2023-02-11T07:04:29.662Z,53.16
2023-02-11T07:06:59.501Z,53.17
2023-02-11T07:09:33.487Z,53.30
2023-02-11T07:12:02.574Z,53.04
2023-02-11T07:14:34.151Z,52.76
2023-02-11T07:17:04.128Z,53.05
2023-02-11T07:19:33.288Z,53.60
2023-02-11T07:22:02.185Z,53.26
2023-02-11T07:24:30.216Z,53.01
2023-02-11T07:26:57.111Z,52.97
2023-02-11T07:29:34.652Z,52.25
2023-02-11T07:32:03.827Z,51.66
2023-02-11T07:34:35.804Z,52.00
2023-02-11T07:37:07.089Z,51.54
2023-02-11T07:39:34.226Z,51.85
2023-02-11T07:42:00.985Z,51.68
2023-02-11T07:44:27.811Z,51.79
2023-02-11T07:46:58.609Z,51.52
2023-02-11T07:49:27.854Z,51.14
2023-02-11T07:51:59.731Z,51.07
2023-02-11T07:54:28.771Z,50.85
2023-02-11T07:56:55.580Z,50.26
2023-02-11T07:59:25.161Z,50.01
2023-02-11T08:01:55.022Z,50.08
2023-02-11T08:04:23.174Z,49.99
2023-02-11T08:06:52.920Z,49.18
2023-02-11T08:09:24.864Z,49.87
2023-02-11T08:11:56.645Z,49.31
2023-02-11T08:14:28.684Z,49.14
2023-02-11T08:17:01.082Z,49.43
2023-02-11T08:19:28.159Z,49.20
2023-02-11T08:21:58.571Z,48.49
2023-02-11T08:24:28.337Z,48.91
2023-02-11T08:26:56.737Z,48.97
2023-02-11T08:29:30.912Z,49.29
2023-02-11T08:31:57.984Z,48.76
2023-02-11T08:34:26.920Z,48.47
2023-02-11T08:36:54.221Z,47.46
2023-02-11T08:39:24.518Z,47.14
2023-02-11T08:41:54.104Z,46.10
2023-02-11T08:44:21.111Z,46.13
2023-02-11T08:46:48.362Z,45.76
2023-02-11T08:49:15.692Z,45.52
2023-02-11T08:51:45.897Z,45.87
2023-02-11T08:54:14.173Z,44.62
2023-02-11T08:56:47.608Z,46.12
2023-02-11T08:59:16.081Z,45.15
2023-02-11T09:01:47.847Z,45.09
2023-02-11T09:04:14.996Z,45.72
2023-02-11T09:06:42.184Z,45.10
2023-02-11T09:09:13.529Z,44.70
2023-02-11T09:11:41.540Z,45.06
2023-02-11T09:14:20.544Z,45.28
2023-02-11T09:16:48.324Z,43.97
2023-02-11T09:19:15.655Z,45.07
2023-02-11T09:21:45.476Z,43.48
2023-02-11T09:24:12.335Z,42.55
2023-02-11T09:26:43.395Z,42.31
2023-02-11T09:29:10.446Z,42.43
2023-02-11T09:31:37.591Z,42.20
2023-02-11T09:34:09.846Z,41.99
2023-02-11T09:36:43.842Z,41.77
2023-02-11T09:39:18.273Z,41.55
2023-02-11T09:41:48.104Z,42.75
2023-02-11T09:44:23.688Z,42.80
2023-02-11T09:47:01.196Z,42.44
2023-02-11T09:49:39.418Z,41.20
2023-02-11T09:52:22.655Z,41.22
2023-02-11T09:54:58.460Z,41.68
2023-02-11T09:57:36.836Z,40.66
2023-02-11T10:00:20.043Z,40.21
2023-02-11T10:02:46.749Z,41.69
2023-02-11T10:05:17.804Z,41.81
2023-02-11T10:07:44.757Z,41.12
2023-02-11T10:10:30.026Z,40.74
2023-02-11T10:13:21.897Z,40.24
2023-02-11T10:16:16.183Z,39.89
2023-02-11T10:19:03.129Z,39.57
2023-02-11T10:21:34.403Z,39.18
2023-02-11T10:24:05.745Z,39.41
2023-02-11T10:26:36.990Z,39.80
2023-02-11T10:29:25.262Z,39.38
2023-02-11T10:31:52.383Z,39.07
2023-02-11T10:34:19.369Z,39.60
2023-02-11T10:36:48.772Z,38.69
2023-02-11T10:39:16.984Z,37.94
2023-02-11T10:41:48.582Z,39.05
2023-02-11T10:44:31.017Z,39.31
2023-02-11T10:47:00.108Z,37.05
2023-02-11T10:49:40.465Z,36.42
2023-02-11T10:52:30.707Z,36.83
2023-02-11T10:55:29.135Z,36.47
2023-02-11T10:58:33.499Z,36.48
2023-02-11T11:01:03.750Z,36.17
2023-02-11T11:03:43.265Z,34.82
2023-02-11T11:06:10.191Z,36.33
2023-02-11T11:08:52.213Z,36.55
2023-02-11T11:11:29.619Z,37.91
2023-02-11T11:14:03.360Z,38.24
2023-02-11T11:16:37.058Z,37.71
2023-02-11T11:19:09.743Z,38.57
2023-02-11T11:21:42.522Z,39.33
2023-02-11T11:24:22.212Z,39.37
2023-02-11T11:26:56.993Z,40.04
2023-02-11T11:29:46.007Z,40.71
2023-02-11T11:32:18.911Z,40.83
2023-02-11T11:35:17.854Z,40.50
2023-02-11T11:37:47.103Z,39.45
2023-02-11T11:40:16.741Z,39.39
2023-02-11T11:42:47.258Z,38.15
2023-02-11T11:45:19.939Z,37.38
2023-02-11T11:47:53.316Z,37.79
2023-02-11T11:50:35.597Z,37.49
2023-02-11T11:53:26.508Z,37.50
2023-02-11T11:56:00.155Z,37.59
2023-02-11T11:58:32.852Z,37.62
2023-02-11T12:01:02.308Z,37.23
2023-02-11T12:03:34.441Z,36.71
2023-02-11T12:06:41.307Z,36.63
2023-02-11T12:09:32.463Z,36.55
2023-02-11T12:12:24.092Z,36.62
2023-02-11T12:15:12.174Z,35.48
2023-02-11T12:17:38.940Z,35.68
2023-02-11T12:20:18.338Z,35.20
2023-02-11T12:22:48.782Z,35.08
2023-02-11T12:25:38.876Z,35.21
2023-02-11T12:28:27.555Z,35.67
2023-02-11T12:31:12.078Z,35.06
2023-02-11T12:33:59.965Z,35.75
2023-02-11T12:37:07.995Z,35.54
2023-02-11T12:40:00.589Z,35.11
2023-02-11T12:42:52.036Z,35.30
2023-02-11T12:45:40.001Z,35.50
2023-02-11T12:48:35.629Z,34.73
2023-02-11T12:51:02.605Z,32.38
2023-02-11T12:53:32.825Z,32.18
2023-02-11T12:56:22.994Z,32.63
2023-02-11T12:58:53.136Z,32.93
2023-02-11T13:01:41.014Z,32.58
2023-02-11T13:04:22.072Z,33.05
2023-02-11T13:06:52.474Z,31.28
2023-02-11T13:09:33.150Z,30.27
2023-02-11T13:12:23.031Z,31.04
2023-02-11T13:14:52.944Z,31.56
2023-02-11T13:17:50.247Z,31.69
2023-02-11T13:20:25.903Z,31.43
2023-02-11T13:23:24.274Z,32.09
2023-02-11T13:25:57.479Z,32.84
2023-02-11T13:28:27.280Z,32.18
2023-02-11T13:31:03.235Z,31.81
2023-02-11T13:33:43.155Z,32.63
2023-02-11T13:36:09.949Z,31.93
2023-02-11T13:38:40.066Z,31.83
2023-02-11T13:41:35.804Z,32.90
2023-02-11T13:44:08.597Z,33.01
2023-02-11T13:46:54.928Z,32.80
2023-02-11T13:49:25.912Z,33.06
2023-02-11T13:52:00.484Z,33.76
2023-02-11T13:54:31.889Z,33.40
2023-02-11T13:57:19.677Z,33.51
2023-02-11T13:59:58.168Z,33.96
2023-02-11T14:02:49.497Z,33.43
2023-02-11T14:05:50.518Z,33.49
2023-02-11T14:08:45.662Z,33.10
2023-02-11T14:11:25.306Z,33.20
2023-02-11T14:13:55.018Z,33.24
2023-02-11T14:16:37.302Z,31.03
2023-02-11T14:19:06.787Z,30.71
2023-02-11T14:21:36.973Z,30.21
2023-02-11T14:24:07.424Z,29.30
2023-02-11T14:26:56.958Z,29.64
2023-02-11T14:29:34.210Z,30.34
2023-02-11T14:32:23.661Z,31.46
2023-02-11T14:35:25.954Z,32.17
2023-02-11T14:38:14.029Z,32.80
2023-02-11T14:40:42.403Z,33.00
2023-02-11T14:43:36.384Z,32.94
2023-02-11T14:46:03.940Z,33.37
2023-02-11T14:48:40.726Z,33.72
2023-02-11T14:51:10.186Z,33.80
2023-02-11T14:53:37.086Z,33.95
2023-02-11T14:56:04.091Z,33.39
2023-02-11T14:58:32.689Z,33.48
2023-02-11T15:01:23.121Z,33.45
2023-02-11T15:03:50.166Z,33.58
2023-02-11T15:06:45.037Z,33.62
2023-02-11T15:09:19.824Z,34.26
2023-02-11T15:11:49.792Z,34.28
2023-02-11T15:14:29.468Z,34.50
2023-02-11T15:17:01.701Z,34.44
2023-02-11T15:19:34.237Z,34.74
2023-02-11T15:22:08.532Z,35.20
2023-02-11T15:24:35.736Z,35.65
2023-02-11T15:27:08.650Z,35.85
2023-02-11T15:29:40.090Z,35.87
2023-02-11T15:32:10.044Z,36.28
2023-02-11T15:34:37.266Z,36.27
2023-02-11T15:37:09.335Z,36.49
2023-02-11T15:39:44.174Z,36.84
2023-02-11T15:42:24.299Z,36.81
2023-02-11T15:45:16.541Z,36.91
2023-02-11T15:47:54.314Z,37.04
2023-02-11T15:50:21.224Z,37.03
2023-02-11T15:52:50.485Z,37.20
2023-02-11T15:55:18.025Z,37.18
2023-02-11T15:57:54.061Z,37.04
2023-02-11T16:00:24.801Z,37.31
2023-02-11T16:02:52.068Z,37.07
2023-02-11T16:05:31.864Z,37.56
2023-02-11T16:08:24.570Z,37.59
2023-02-11T16:11:03.520Z,37.31
2023-02-11T16:13:38.436Z,37.63
2023-02-11T16:16:19.938Z,38.12
2023-02-11T16:19:04.380Z,38.09
2023-02-11T16:21:39.309Z,38.65
2023-02-11T16:24:15.850Z,39.16
2023-02-11T16:26:48.039Z,39.42
2023-02-11T16:29:24.775Z,39.72
2023-02-11T16:31:53.564Z,39.48
2023-02-11T16:34:24.556Z,39.82
2023-02-11T16:36:52.227Z,39.84
2023-02-11T16:39:22.684Z,39.87
2023-02-11T16:41:56.240Z,39.71
2023-02-11T16:44:25.571Z,39.95
2023-02-11T16:46:56.075Z,40.20
2023-02-11T16:49:25.840Z,40.36
2023-02-11T16:52:01.245Z,40.56
2023-02-11T16:54:29.257Z,40.67
2023-02-11T16:57:02.138Z,40.56
2023-02-11T16:59:28.971Z,40.62
2023-02-11T17:01:55.773Z,40.50
2023-02-11T17:04:27.814Z,40.97
2023-02-11T17:06:58.690Z,40.83
2023-02-11T17:09:30.484Z,41.14
2023-02-11T17:11:57.555Z,40.85
2023-02-11T17:14:26.592Z,41.06
2023-02-11T17:16:59.145Z,40.99
2023-02-11T17:19:30.794Z,41.22
2023-02-11T17:22:00.492Z,41.12
2023-02-11T17:24:29.565Z,40.75
2023-02-11T17:26:58.622Z,40.62
2023-02-11T17:29:27.908Z,40.28
2023-02-11T17:31:54.778Z,40.40
2023-02-11T17:34:22.708Z,40.42
2023-02-11T17:36:50.153Z,40.20
2023-02-11T17:39:22.065Z,40.12
2023-02-11T17:41:53.597Z,40.07
2023-02-11T17:44:25.017Z,40.01
2023-02-11T17:46:54.140Z,40.22
2023-02-11T17:49:21.032Z,40.03
2023-02-11T17:51:52.652Z,40.04
2023-02-11T17:54:19.830Z,40.21
2023-02-11T17:56:50.760Z,40.31
2023-02-11T17:59:20.480Z,40.04
2023-02-11T18:01:49.464Z,39.81
2023-02-11T18:04:17.994Z,40.48
2023-02-11T18:06:45.040Z,40.37
2023-02-11T18:09:14.780Z,40.39
2023-02-11T18:11:44.217Z,40.40
2023-02-11T18:14:10.838Z,40.57
2023-02-11T18:16:39.469Z,40.43
2023-02-11T18:19:08.898Z,40.50
2023-02-11T18:21:35.996Z,41.10
2023-02-11T18:24:06.972Z,40.58
2023-02-11T18:26:34.660Z,40.60
2023-02-11T18:29:01.780Z,40.55
2023-02-11T18:31:36.116Z,40.53
2023-02-11T18:34:04.686Z,40.44
2023-02-11T18:36:31.602Z,40.53
2023-02-11T18:39:00.127Z,40.46
2023-02-11T18:41:29.860Z,40.24
2023-02-11T18:43:58.836Z,40.38
2023-02-11T18:46:26.116Z,40.43
2023-02-11T18:48:56.265Z,40.30
2023-02-11T18:51:25.999Z,40.29
2023-02-11T18:53:53.095Z,40.12
2023-02-11T18:56:24.094Z,40.45
2023-02-11T18:58:56.669Z,40.23
2023-02-11T19:01:27.361Z,40.44
2023-02-11T19:03:58.524Z,40.30
2023-02-11T19:06:27.382Z,40.33
2023-02-11T19:09:00.124Z,40.36
2023-02-11T19:11:47.105Z,40.21
2023-02-11T19:14:15.438Z,40.41
2023-02-11T19:16:43.968Z,40.51
2023-02-11T19:19:14.032Z,40.61
2023-02-11T19:21:43.748Z,40.90
2023-02-11T19:24:11.381Z,40.93
2023-02-11T19:26:40.423Z,40.92
2023-02-11T19:29:09.850Z,40.65
2023-02-11T19:31:36.610Z,40.85
2023-02-11T19:34:07.487Z,40.73
2023-02-11T19:36:36.880Z,40.44
2023-02-11T19:39:05.478Z,40.67
2023-02-11T19:41:34.069Z,40.70
2023-02-11T19:44:01.575Z,40.56
2023-02-11T19:46:33.644Z,40.74
2023-02-11T19:49:03.726Z,40.79
2023-02-11T19:51:31.144Z,40.63
2023-02-11T19:54:00.848Z,40.76
2023-02-11T19:56:29.924Z,41.11
2023-02-11T19:58:57.124Z,41.11
2023-02-11T20:01:28.739Z,40.89
2023-02-11T20:03:58.015Z,41.32
2023-02-11T20:06:28.572Z,41.72
2023-02-11T20:08:58.825Z,41.94
2023-02-11T20:11:28.216Z,41.56
2023-02-11T20:13:55.347Z,41.53
2023-02-11T20:16:44.688Z,41.86
2023-02-11T20:19:20.461Z,41.95
2023-02-11T20:21:51.062Z,42.26
2023-02-11T20:24:19.210Z,42.60
2023-02-11T20:26:49.408Z,42.97
2023-02-11T20:29:17.462Z,43.65
2023-02-11T20:31:44.461Z,43.93
2023-02-11T20:34:12.287Z,44.66
2023-02-11T20:36:51.838Z,44.34
2023-02-11T20:39:22.360Z,45.62
2023-02-11T20:41:50.048Z,45.57
2023-02-11T20:44:21.844Z,45.75
2023-02-11T20:46:49.313Z,46.15
2023-02-11T20:49:22.061Z,45.37
2023-02-11T20:51:53.329Z,45.19
2023-02-11T20:54:21.537Z,45.35
2023-02-11T20:56:51.223Z,45.52
2023-02-11T20:59:19.260Z,46.63
2023-02-11T21:01:48.711Z,46.14
2023-02-11T21:04:16.803Z,47.26
2023-02-11T21:06:48.199Z,47.18
2023-02-11T21:09:20.112Z,47.36
2023-02-11T21:11:47.604Z,47.82
2023-02-11T21:14:15.474Z,48.30
2023-02-11T21:16:44.365Z,47.26
2023-02-11T21:19:11.361Z,47.03
2023-02-11T21:21:39.093Z,46.88
2023-02-11T21:24:07.728Z,47.90
2023-02-11T21:26:35.720Z,48.62
2023-02-11T21:29:08.060Z,47.83
2023-02-11T21:31:36.173Z,48.47
2023-02-11T21:34:03.830Z,47.62
2023-02-11T21:36:30.836Z,47.62
2023-02-11T21:39:01.748Z,47.65
2023-02-11T21:41:28.851Z,48.02
2023-02-11T21:43:57.798Z,48.85
2023-02-11T21:46:27.401Z,48.30
2023-02-11T21:49:00.458Z,47.96
2023-02-11T21:51:27.612Z,48.12
2023-02-11T21:54:01.156Z,48.19
2023-02-11T21:56:32.515Z,48.73
2023-02-11T21:58:59.875Z,49.67
2023-02-11T22:01:29.308Z,51.82
2023-02-11T22:03:56.785Z,51.06
2023-02-11T22:06:26.373Z,50.82
2023-02-11T22:08:54.356Z,50.45
2023-02-11T22:11:21.304Z,50.79
2023-02-11T22:13:48.144Z,51.01
2023-02-11T22:16:19.678Z,50.44
2023-02-11T22:18:46.605Z,50.50
2023-02-11T22:21:19.696Z,52.44
2023-02-11T22:23:49.529Z,51.59
2023-02-11T22:26:19.093Z,52.80
2023-02-11T22:28:49.999Z,53.70
2023-02-11T22:31:23.059Z,53.86
2023-02-11T22:33:52.571Z,55.13
2023-02-11T22:36:26.116Z,55.36
2023-02-11T22:38:55.754Z,55.21
2023-02-11T22:41:25.783Z,54.61
2023-02-11T22:43:54.701Z,56.04
2023-02-11T22:46:21.880Z,55.83
2023-02-11T22:48:49.118Z,56.63
2023-02-11T22:51:19.523Z,55.78
2023-02-11T22:53:59.805Z,55.39
2023-02-11T22:56:27.872Z,55.69
2023-02-11T22:59:00.377Z,56.27
2023-02-11T23:01:33.048Z,55.28
2023-02-11T23:04:04.540Z,54.99
2023-02-11T23:06:31.617Z,56.50
2023-02-11T23:08:58.441Z,55.57
2023-02-11T23:11:28.142Z,55.55
2023-02-11T23:13:55.413Z,55.65
2023-02-11T23:16:32.987Z,56.33
2023-02-11T23:19:03.532Z,55.98
2023-02-11T23:21:36.047Z,58.24
2023-02-11T23:24:08.953Z,57.45
2023-02-11T23:26:43.911Z,58.22
2023-02-11T23:29:14.007Z,59.48
2023-02-11T23:31:44.134Z,58.94
2023-02-11T23:34:11.773Z,59.61
2023-02-11T23:36:39.042Z,58.69
2023-02-11T23:39:13.562Z,59.74
2023-02-11T23:41:42.512Z,60.21
2023-02-11T23:44:12.127Z,59.66
2023-02-11T23:46:42.113Z,60.99
2023-02-11T23:49:08.997Z,60.70
2023-02-11T23:51:35.765Z,61.23
2023-02-11T23:54:03.329Z,61.31
2023-02-11T23:56:30.623Z,59.72
2023-02-11T23:58:59.392Z,59.15
